createdAt,value
2019-05-23T00:01:32.225Z,10.30
2019-05-23T00:04:17.466Z,10.30
2019-05-23T00:06:51.159Z,10.20
2019-05-23T00:09:23.367Z,10.10
2019-05-23T00:12:06.708Z,10.10
2019-05-23T00:14:43.296Z,10.00
2019-05-23T00:17:21.633Z,10.00
2019-05-23T00:19:55.379Z,10.10
2019-05-23T00:22:30.532Z,10.00
2019-05-23T00:25:02.843Z,10.10
2019-05-23T00:27:40.680Z,10.00
2019-05-23T00:30:15.468Z,10.00
2019-05-23T00:32:52.635Z,10.00
2019-05-23T00:35:26.560Z,9.90
2019-05-23T00:37:59.889Z,9.80
2019-05-23T00:40:35.096Z,9.80
2019-05-23T00:43:09.009Z,9.80
2019-05-23T00:45:42.499Z,9.60
2019-05-23T00:48:19.282Z,9.60
2019-05-23T00:50:53.709Z,9.70
2019-05-23T00:53:26.410Z,9.70
2019-05-23T00:56:01.074Z,9.60
2019-05-23T00:58:39.317Z,9.60
2019-05-23T01:01:12.185Z,9.60
2019-05-23T01:03:49.067Z,9.70
2019-05-23T01:06:20.457Z,9.60
2019-05-23T01:08:53.842Z,9.70
2019-05-23T01:11:27.602Z,9.70
2019-05-23T01:14:01.683Z,9.70
2019-05-23T01:16:36.439Z,9.70
2019-05-23T01:19:10.220Z,9.80
2019-05-23T01:22:12.865Z,9.80
2019-05-23T01:24:49.465Z,9.70
2019-05-23T01:27:23.043Z,9.70
2019-05-23T01:29:56.928Z,9.60
2019-05-23T01:32:34.916Z,9.60
2019-05-23T01:35:09.110Z,9.40
2019-05-23T01:37:42.035Z,9.50
2019-05-23T01:40:16.345Z,9.60
2019-05-23T01:42:48.929Z,9.50
2019-05-23T01:45:20.381Z,9.60
2019-05-23T01:47:51.900Z,9.60
2019-05-23T01:50:25.629Z,9.50
2019-05-23T01:53:00.058Z,9.60
2019-05-23T01:55:31.094Z,9.60
2019-05-23T01:58:04.340Z,9.60
2019-05-23T02:00:38.987Z,9.60
2019-05-23T02:03:16.077Z,9.60
2019-05-23T02:05:52.969Z,9.60
2019-05-23T02:08:26.038Z,9.50
2019-05-23T02:10:57.889Z,9.40
2019-05-23T02:13:31.293Z,9.50
2019-05-23T02:16:04.078Z,9.50
2019-05-23T02:18:38.186Z,9.50
2019-05-23T02:21:15.474Z,9.40
2019-05-23T02:23:46.918Z,9.50
2019-05-23T02:26:23.093Z,9.60
2019-05-23T02:28:56.092Z,9.50
2019-05-23T02:31:28.726Z,9.40
2019-05-23T02:34:02.945Z,9.40
2019-05-23T02:36:36.912Z,9.50
2019-05-23T02:39:40.493Z,9.60
2019-05-23T02:42:24.694Z,9.60
2019-05-23T02:45:01.395Z,9.60
2019-05-23T02:47:45.808Z,9.60
2019-05-23T02:50:22.066Z,9.60
2019-05-23T02:52:56.108Z,9.60
2019-05-23T02:55:35.331Z,9.60
2019-05-23T02:58:12.854Z,9.50
2019-05-23T03:00:57.280Z,9.60
2019-05-23T03:03:34.923Z,9.70
2019-05-23T03:06:17.530Z,9.70
2019-05-23T03:08:51.351Z,9.70
2019-05-23T03:11:40.502Z,9.80
2019-05-23T03:14:12.515Z,9.80
2019-05-23T03:16:46.424Z,9.80
2019-05-23T03:19:37.945Z,9.80
2019-05-23T03:22:34.722Z,9.90
2019-05-23T03:25:09.294Z,9.90
2019-05-23T03:27:44.998Z,10.00
2019-05-23T03:30:25.246Z,10.00
2019-05-23T03:33:01.235Z,10.00
2019-05-23T03:35:42.322Z,10.10
2019-05-23T03:38:14.646Z,10.20
2019-05-23T03:40:46.641Z,10.20
2019-05-23T03:43:19.531Z,10.20
2019-05-23T03:46:01.789Z,10.20
2019-05-23T03:48:36.462Z,10.20
2019-05-23T03:51:11.682Z,10.40
2019-05-23T03:53:47.337Z,10.50
2019-05-23T03:56:20.923Z,10.30
2019-05-23T03:58:56.064Z,10.40
2019-05-23T04:01:46.001Z,10.40
2019-05-23T04:04:05.752Z,10.30
2019-05-23T04:06:38.609Z,10.40
2019-05-23T04:09:11.918Z,10.30
2019-05-23T04:11:44.675Z,10.40
2019-05-23T04:14:17.138Z,10.30
2019-05-23T04:16:47.394Z,10.40
2019-05-23T04:19:19.665Z,10.50
2019-05-23T04:21:50.474Z,10.30
2019-05-23T04:24:23.998Z,10.20
2019-05-23T04:26:57.363Z,10.30
2019-05-23T04:29:30.279Z,10.40
2019-05-23T04:32:08.430Z,10.40
2019-05-23T04:34:38.294Z,10.40
2019-05-23T04:37:13.014Z,10.50
2019-05-23T04:39:49.242Z,10.40
2019-05-23T04:42:21.608Z,10.20
2019-05-23T04:44:54.606Z,10.50
2019-05-23T04:47:28.446Z,10.60
2019-05-23T04:49:59.401Z,10.50
2019-05-23T04:52:33.246Z,10.50
2019-05-23T04:55:04.422Z,10.60
2019-05-23T04:57:35.936Z,10.70
2019-05-23T05:00:11.902Z,10.80
2019-05-23T05:02:42.141Z,10.70
2019-05-23T05:05:12.324Z,11.00
2019-05-23T05:07:42.484Z,11.10
2019-05-23T05:10:19.837Z,11.00
2019-05-23T05:13:13.638Z,11.20
2019-05-23T05:15:47.876Z,11.40
2019-05-23T05:18:22.149Z,11.20
2019-05-23T05:20:55.042Z,11.50
2019-05-23T05:23:28.091Z,11.20
2019-05-23T05:26:00.756Z,11.20
2019-05-23T05:28:32.498Z,11.30
2019-05-23T05:31:06.125Z,11.80
2019-05-23T05:33:41.517Z,12.00
2019-05-23T05:36:14.641Z,12.20
2019-05-23T05:38:48.656Z,12.40
2019-05-23T05:41:23.049Z,12.70
2019-05-23T05:43:54.199Z,13.10
2019-05-23T05:46:27.632Z,12.90
2019-05-23T05:49:04.619Z,13.20
2019-05-23T05:51:37.373Z,13.20
2019-05-23T05:54:09.216Z,13.60
2019-05-23T05:56:42.134Z,13.10
2019-05-23T05:59:16.786Z,12.90
2019-05-23T06:01:48.134Z,13.00
2019-05-23T06:04:22.177Z,13.40
2019-05-23T06:07:13.147Z,13.80
2019-05-23T06:09:48.667Z,14.00
2019-05-23T06:12:21.870Z,13.90
2019-05-23T06:14:52.770Z,13.50
2019-05-23T06:17:26.113Z,13.60
2019-05-23T06:19:57.753Z,14.10
2019-05-23T06:22:35.594Z,14.50
2019-05-23T06:25:12.197Z,14.50
2019-05-23T06:27:43.803Z,14.50
2019-05-23T06:30:15.979Z,14.50
2019-05-23T06:32:52.694Z,14.70
2019-05-23T06:35:27.791Z,14.80
2019-05-23T06:38:01.641Z,15.10
2019-05-23T06:40:36.757Z,15.10
2019-05-23T06:43:08.505Z,14.90
2019-05-23T06:45:42.453Z,14.50
2019-05-23T06:48:16.740Z,14.10
2019-05-23T06:50:53.299Z,14.10
2019-05-23T06:53:25.134Z,13.90
2019-05-23T06:55:56.925Z,13.80
2019-05-23T06:58:29.333Z,14.20
2019-05-23T07:01:03.184Z,14.20
2019-05-23T07:03:42.464Z,14.40
2019-05-23T07:06:11.224Z,14.50
2019-05-23T07:08:43.923Z,14.20
2019-05-23T07:11:15.146Z,13.60
2019-05-23T07:13:47.997Z,13.60
2019-05-23T07:16:24.735Z,13.60
2019-05-23T07:18:58.179Z,13.50
2019-05-23T07:21:32.161Z,13.50
2019-05-23T07:24:04.182Z,13.30
2019-05-23T07:26:36.240Z,13.20
2019-05-23T07:29:09.805Z,12.90
2019-05-23T07:31:43.449Z,13.20
2019-05-23T07:34:18.706Z,12.90
2019-05-23T07:36:51.574Z,12.80
2019-05-23T07:39:25.205Z,13.30
2019-05-23T07:41:59.054Z,13.10
2019-05-23T07:44:47.183Z,13.30
2019-05-23T07:47:05.045Z,13.00
2019-05-23T07:49:38.821Z,12.80
2019-05-23T07:52:12.258Z,13.00
2019-05-23T07:54:58.325Z,13.20
2019-05-23T07:57:32.233Z,13.40
2019-05-23T08:00:10.548Z,13.50
2019-05-23T08:02:47.317Z,13.70
2019-05-23T08:05:18.049Z,13.50
2019-05-23T08:07:47.495Z,13.50
2019-05-23T08:10:33.158Z,13.50
2019-05-23T08:12:55.593Z,13.80
2019-05-23T08:15:29.078Z,13.30
2019-05-23T08:18:05.371Z,13.10
2019-05-23T08:20:36.976Z,13.70
2019-05-23T08:23:10.691Z,13.80
2019-05-23T08:25:42.613Z,13.40
2019-05-23T08:28:13.502Z,13.70
2019-05-23T08:30:44.363Z,13.50
2019-05-23T08:33:18.194Z,13.50
2019-05-23T08:35:53.981Z,13.40
2019-05-23T08:38:27.431Z,13.20
2019-05-23T08:41:03.111Z,12.80
2019-05-23T08:43:39.011Z,12.80
2019-05-23T08:46:11.386Z,13.30
2019-05-23T08:48:43.900Z,13.20
2019-05-23T08:51:17.275Z,13.20
2019-05-23T08:53:50.669Z,13.30
2019-05-23T08:56:25.589Z,13.70
2019-05-23T08:58:58.141Z,14.10
2019-05-23T09:01:27.802Z,14.10
2019-05-23T09:04:01.369Z,14.20
2019-05-23T09:06:35.449Z,13.90
2019-05-23T09:09:28.405Z,13.80
2019-05-23T09:11:52.203Z,13.50
2019-05-23T09:14:26.930Z,13.80
2019-05-23T09:16:59.876Z,13.80
2019-05-23T09:19:32.233Z,13.80
2019-05-23T09:22:05.654Z,13.10
2019-05-23T09:24:38.241Z,12.90
2019-05-23T09:27:10.900Z,12.80
2019-05-23T09:29:44.596Z,12.70
2019-05-23T09:32:19.415Z,12.70
2019-05-23T09:34:56.541Z,12.70
2019-05-23T09:37:29.496Z,12.40
2019-05-23T09:40:06.330Z,12.70
2019-05-23T09:42:39.965Z,12.70
2019-05-23T09:45:14.093Z,12.60
2019-05-23T09:47:51.000Z,12.70
2019-05-23T09:50:25.045Z,12.50
2019-05-23T09:52:58.895Z,12.20
2019-05-23T09:55:36.305Z,12.40
2019-05-23T09:58:07.104Z,12.70
2019-05-23T10:00:40.760Z,13.00
2019-05-23T10:03:12.557Z,13.00
2019-05-23T10:05:45.039Z,12.70
2019-05-23T10:08:19.409Z,12.80
2019-05-23T10:10:51.939Z,12.80
2019-05-23T10:13:38.736Z,13.00
2019-05-23T10:16:09.457Z,12.60
2019-05-23T10:18:41.718Z,12.60
2019-05-23T10:21:15.087Z,12.40
2019-05-23T10:23:46.264Z,12.70
2019-05-23T10:26:19.740Z,12.40
2019-05-23T10:28:54.957Z,12.40
2019-05-23T10:31:29.721Z,12.50
2019-05-23T10:34:01.223Z,12.10
2019-05-23T10:36:32.850Z,11.80
2019-05-23T10:39:08.153Z,11.90
2019-05-23T10:41:40.022Z,12.00
2019-05-23T10:44:15.442Z,12.10
2019-05-23T10:46:49.245Z,11.80
2019-05-23T10:49:22.391Z,11.90
2019-05-23T10:51:54.329Z,12.00
2019-05-23T10:54:26.249Z,11.90
2019-05-23T10:56:58.318Z,11.50
2019-05-23T10:59:31.964Z,11.70
2019-05-23T11:02:07.227Z,11.60
2019-05-23T11:04:43.234Z,11.30
2019-05-23T11:07:17.700Z,11.60
2019-05-23T11:09:50.174Z,11.80
2019-05-23T11:12:22.209Z,11.70
2019-05-23T11:14:59.050Z,11.90
2019-05-23T11:17:31.956Z,11.80
2019-05-23T11:20:03.346Z,11.60
2019-05-23T11:22:33.432Z,11.60
2019-05-23T11:25:03.744Z,11.60
2019-05-23T11:27:34.454Z,11.80
2019-05-23T11:30:07.953Z,11.90
2019-05-23T11:32:38.485Z,12.10
2019-05-23T11:35:11.365Z,12.10
2019-05-23T11:37:44.153Z,12.00
2019-05-23T11:40:16.008Z,11.70
2019-05-23T11:42:46.747Z,12.00
2019-05-23T11:45:17.640Z,12.00
2019-05-23T11:47:48.511Z,12.20
2019-05-23T11:50:20.525Z,12.30
2019-05-23T11:52:51.678Z,12.20
2019-05-23T11:55:29.495Z,11.90
2019-05-23T11:58:04.989Z,12.10
2019-05-23T12:01:32.502Z,12.10
2019-05-23T12:04:14.727Z,12.10
2019-05-23T12:06:55.540Z,12.30
2019-05-23T12:09:26.368Z,12.50
2019-05-23T12:11:59.039Z,12.20
2019-05-23T12:14:30.096Z,12.40
2019-05-23T12:17:05.238Z,12.60
2019-05-23T12:19:42.420Z,12.40
2019-05-23T12:22:15.356Z,12.50
2019-05-23T12:24:49.884Z,12.70
2019-05-23T12:27:24.757Z,12.70
2019-05-23T12:30:16.789Z,12.50
2019-05-23T12:32:50.643Z,12.70
2019-05-23T12:35:25.533Z,12.90
2019-05-23T12:37:58.019Z,12.70
2019-05-23T12:40:32.847Z,12.80
2019-05-23T12:43:05.035Z,13.00
2019-05-23T12:45:39.039Z,13.20
2019-05-23T12:48:20.356Z,13.00
2019-05-23T12:50:56.430Z,12.90
2019-05-23T12:53:29.199Z,12.60
2019-05-23T12:56:04.158Z,12.60
2019-05-23T12:58:39.867Z,12.80
2019-05-23T13:01:13.988Z,12.90
2019-05-23T13:03:46.703Z,13.10
2019-05-23T13:06:19.883Z,13.10
2019-05-23T13:08:54.038Z,13.00
2019-05-23T13:11:27.758Z,13.00
2019-05-23T13:14:04.419Z,13.00
2019-05-23T13:16:37.042Z,12.60
2019-05-23T13:19:08.477Z,12.80
2019-05-23T13:21:39.006Z,13.10
2019-05-23T13:24:12.520Z,13.20
2019-05-23T13:26:54.322Z,13.10
2019-05-23T13:29:25.849Z,12.90
2019-05-23T13:31:57.405Z,12.80
2019-05-23T13:34:30.308Z,12.70
2019-05-23T13:37:06.048Z,12.80
2019-05-23T13:39:39.765Z,12.90
2019-05-23T13:42:12.364Z,13.10
2019-05-23T13:44:45.481Z,13.10
2019-05-23T13:47:19.938Z,13.10
2019-05-23T13:49:51.935Z,13.30
2019-05-23T13:52:25.349Z,13.20
2019-05-23T13:55:02.436Z,13.10
2019-05-23T13:57:34.022Z,13.10
2019-05-23T14:00:09.821Z,12.90
2019-05-23T14:02:45.107Z,12.80
2019-05-23T14:05:19.639Z,12.60
2019-05-23T14:08:08.755Z,12.70
2019-05-23T14:10:29.530Z,12.80
2019-05-23T14:13:02.353Z,12.90
2019-05-23T14:15:41.514Z,13.00
2019-05-23T14:18:16.942Z,13.00
2019-05-23T14:20:52.459Z,13.00
2019-05-23T14:23:30.011Z,12.90
2019-05-23T14:26:02.767Z,12.60
2019-05-23T14:28:35.468Z,13.00
2019-05-23T14:31:22.983Z,13.20
2019-05-23T14:34:03.457Z,13.30
2019-05-23T14:36:50.088Z,13.20
2019-05-23T14:39:28.924Z,13.40
2019-05-23T14:42:13.277Z,13.30
2019-05-23T14:44:44.746Z,13.30
2019-05-23T14:47:50.561Z,13.00
2019-05-23T14:50:55.900Z,13.20
2019-05-23T14:53:31.346Z,12.90
2019-05-23T14:56:03.862Z,12.90
2019-05-23T14:58:37.256Z,13.10
2019-05-23T15:01:10.277Z,13.30
2019-05-23T15:03:41.494Z,13.20
2019-05-23T15:06:13.523Z,12.70
2019-05-23T15:08:50.977Z,12.70
2019-05-23T15:11:15.488Z,12.30
2019-05-23T15:13:46.704Z,11.80
2019-05-23T15:16:21.867Z,12.00
2019-05-23T15:18:57.819Z,12.00
2019-05-23T15:21:29.668Z,12.00
2019-05-23T15:24:02.162Z,12.20
2019-05-23T15:26:37.746Z,12.30
2019-05-23T15:29:09.331Z,11.70
2019-05-23T15:31:41.493Z,11.70
2019-05-23T15:34:12.973Z,11.40
2019-05-23T15:36:46.561Z,11.30
2019-05-23T15:39:23.913Z,11.30
2019-05-23T15:41:58.828Z,11.40
2019-05-23T15:44:30.773Z,11.60
2019-05-23T15:47:03.990Z,11.80
2019-05-23T15:49:40.557Z,11.90
2019-05-23T15:52:40.545Z,11.70
2019-05-23T15:55:22.905Z,11.60
2019-05-23T15:58:22.211Z,11.20
2019-05-23T16:01:16.742Z,11.00
2019-05-23T16:03:55.333Z,10.90
2019-05-23T16:06:30.480Z,11.00
2019-05-23T16:09:01.542Z,11.20
2019-05-23T16:11:34.055Z,11.10
2019-05-23T16:14:07.301Z,11.20
2019-05-23T16:16:43.037Z,11.30
2019-05-23T16:19:16.686Z,11.40
2019-05-23T16:21:49.931Z,11.50
2019-05-23T16:24:22.703Z,11.60
2019-05-23T16:26:52.564Z,11.60
2019-05-23T16:29:28.205Z,11.60
2019-05-23T16:32:02.639Z,11.70
2019-05-23T16:34:35.061Z,11.70
2019-05-23T16:37:08.559Z,11.70
2019-05-23T16:39:48.814Z,11.70
2019-05-23T16:42:18.949Z,11.80
2019-05-23T16:44:51.504Z,11.70
2019-05-23T16:47:26.261Z,11.60
2019-05-23T16:49:59.759Z,11.60
2019-05-23T16:52:30.164Z,11.30
2019-05-23T16:55:04.289Z,11.10
2019-05-23T16:57:43.582Z,11.10
2019-05-23T17:00:47.614Z,11.10
2019-05-23T17:03:36.954Z,11.00
2019-05-23T17:06:34.760Z,11.00
2019-05-23T17:09:26.022Z,11.00
2019-05-23T17:12:27.341Z,11.20
2019-05-23T17:15:22.604Z,11.30
2019-05-23T17:18:12.334Z,11.30
2019-05-23T17:21:02.971Z,11.20
2019-05-23T17:23:50.755Z,11.30
2019-05-23T17:27:00.683Z,11.30
2019-05-23T17:29:49.899Z,11.10
2019-05-23T17:32:26.071Z,11.00
2019-05-23T17:34:57.857Z,11.00
2019-05-23T17:37:29.757Z,11.00
2019-05-23T17:40:03.854Z,10.80
2019-05-23T17:42:35.899Z,10.80
2019-05-23T17:45:07.651Z,10.60
2019-05-23T17:47:37.791Z,10.50
2019-05-23T17:50:07.769Z,10.60
2019-05-23T17:52:37.696Z,10.70
2019-05-23T17:55:07.945Z,10.70
2019-05-23T17:57:40.073Z,10.50
2019-05-23T18:00:16.991Z,10.50
2019-05-23T18:02:49.766Z,10.50
2019-05-23T18:05:25.011Z,10.50
2019-05-23T18:07:59.838Z,10.40
2019-05-23T18:10:44.043Z,10.30
2019-05-23T18:13:07.988Z,10.40
2019-05-23T18:15:41.873Z,10.60
2019-05-23T18:18:15.965Z,10.50
2019-05-23T18:20:46.973Z,10.60
2019-05-23T18:23:20.545Z,10.30
2019-05-23T18:25:54.027Z,10.00
2019-05-23T18:28:29.897Z,10.00
2019-05-23T18:31:13.842Z,10.00
2019-05-23T18:33:46.989Z,10.00
2019-05-23T18:36:20.206Z,10.00
2019-05-23T18:38:51.657Z,9.80
2019-05-23T18:41:22.600Z,9.80
2019-05-23T18:43:56.538Z,9.90
2019-05-23T18:46:37.480Z,9.90
2019-05-23T18:49:16.355Z,9.90
2019-05-23T18:51:48.280Z,9.80
2019-05-23T18:54:19.174Z,9.80
2019-05-23T18:56:50.345Z,9.90
2019-05-23T18:59:22.606Z,9.90
2019-05-23T19:01:55.383Z,9.90
2019-05-23T19:04:27.977Z,9.90
2019-05-23T19:07:00.521Z,9.90
2019-05-23T19:09:32.349Z,10.00
2019-05-23T19:12:06.998Z,9.90
2019-05-23T19:14:39.322Z,9.90
2019-05-23T19:17:11.918Z,10.00
2019-05-23T19:19:43.721Z,10.10
2019-05-23T19:22:15.066Z,9.90
2019-05-23T19:24:44.982Z,9.90
2019-05-23T19:27:18.046Z,9.80
2019-05-23T19:29:51.394Z,9.80
2019-05-23T19:32:22.441Z,9.70
2019-05-23T19:34:56.109Z,9.60
2019-05-23T19:37:27.522Z,9.60
2019-05-23T19:40:02.409Z,9.50
2019-05-23T19:42:37.491Z,9.70
2019-05-23T19:45:09.471Z,9.60
2019-05-23T19:47:40.279Z,9.60
2019-05-23T19:50:13.079Z,9.50
2019-05-23T19:52:43.885Z,9.60
2019-05-23T19:55:19.438Z,9.60
2019-05-23T19:57:50.311Z,9.60
2019-05-23T20:00:24.622Z,9.50
2019-05-23T20:03:03.755Z,9.40
2019-05-23T20:05:36.243Z,9.40
2019-05-23T20:08:07.651Z,9.50
2019-05-23T20:10:40.398Z,9.40
2019-05-23T20:13:22.986Z,9.40
2019-05-23T20:15:57.548Z,9.60
2019-05-23T20:18:32.816Z,9.60
2019-05-23T20:21:07.256Z,9.70
2019-05-23T20:23:57.757Z,9.80
2019-05-23T20:26:31.381Z,9.70
2019-05-23T20:29:04.329Z,9.60
2019-05-23T20:31:56.341Z,9.60
2019-05-23T20:34:30.384Z,9.60
2019-05-23T20:37:02.325Z,9.80
2019-05-23T20:39:33.790Z,9.80
2019-05-23T20:42:11.596Z,9.80
2019-05-23T20:44:37.833Z,9.80
2019-05-23T20:47:10.602Z,9.80
2019-05-23T20:49:43.636Z,9.80
2019-05-23T20:52:15.584Z,9.70
2019-05-23T20:54:50.533Z,9.70
2019-05-23T20:57:23.591Z,9.70
2019-05-23T20:59:58.546Z,9.70
2019-05-23T21:02:30.994Z,9.80
2019-05-23T21:05:03.077Z,9.70
2019-05-23T21:07:42.400Z,9.80
2019-05-23T21:10:17.590Z,9.80
2019-05-23T21:12:50.060Z,9.80
2019-05-23T21:15:25.277Z,9.60
2019-05-23T21:17:57.352Z,9.60
2019-05-23T21:20:31.794Z,9.60
2019-05-23T21:23:06.805Z,9.70
2019-05-23T21:25:39.345Z,9.70
2019-05-23T21:28:12.846Z,9.60
2019-05-23T21:30:47.388Z,9.50
2019-05-23T21:33:21.633Z,9.60
2019-05-23T21:35:57.220Z,9.60
2019-05-23T21:38:28.863Z,9.50
2019-05-23T21:41:18.925Z,9.50
2019-05-23T21:43:52.917Z,9.40
2019-05-23T21:46:24.761Z,9.40
2019-05-23T21:48:56.847Z,9.40
2019-05-23T21:51:29.837Z,9.60
2019-05-23T21:54:02.995Z,9.60
2019-05-23T21:56:37.549Z,9.60
2019-05-23T21:59:11.185Z,9.60
2019-05-23T22:02:10.598Z,9.60
2019-05-23T22:05:13.797Z,9.70
2019-05-23T22:07:46.257Z,9.70
2019-05-23T22:10:19.094Z,9.70
2019-05-23T22:13:03.804Z,9.80
2019-05-23T22:15:42.703Z,9.80
2019-05-23T22:18:20.292Z,9.80
2019-05-23T22:20:56.072Z,9.80
2019-05-23T22:23:28.728Z,9.80
2019-05-23T22:25:59.988Z,9.90
2019-05-23T22:28:29.201Z,9.90
2019-05-23T22:31:00.534Z,10.00
2019-05-23T22:33:32.102Z,10.00
2019-05-23T22:36:07.872Z,10.00
2019-05-23T22:38:43.385Z,10.10
2019-05-23T22:41:37.236Z,10.00
2019-05-23T22:44:11.703Z,10.00
2019-05-23T22:46:48.361Z,10.00
2019-05-23T22:49:20.023Z,10.10
2019-05-23T22:51:54.765Z,10.10
2019-05-23T22:54:27.355Z,10.10
2019-05-23T22:57:00.461Z,10.10
2019-05-23T22:59:33.490Z,10.10
2019-05-23T23:02:08.564Z,10.10
2019-05-23T23:04:44.041Z,10.10
2019-05-23T23:07:14.956Z,10.00
2019-05-23T23:09:48.490Z,10.10
2019-05-23T23:12:23.359Z,10.00
2019-05-23T23:14:55.417Z,10.00
2019-05-23T23:17:27.245Z,10.10
2019-05-23T23:20:00.426Z,10.10
2019-05-23T23:22:33.639Z,10.10
2019-05-23T23:25:06.253Z,10.10
2019-05-23T23:27:38.323Z,10.10
2019-05-23T23:30:10.242Z,10.10
2019-05-23T23:32:43.305Z,10.10
2019-05-23T23:35:15.183Z,10.00
2019-05-23T23:37:48.025Z,10.10
2019-05-23T23:40:21.467Z,10.10
2019-05-23T23:42:51.858Z,10.10
2019-05-23T23:45:39.573Z,10.10
2019-05-23T23:48:27.785Z,10.20
2019-05-23T23:51:15.960Z,10.10
2019-05-23T23:54:05.269Z,10.10
2019-05-23T23:56:54.870Z,10.10
2019-05-23T23:59:27.891Z,10.00
